createdAt,value
2022-12-11T00:00:12.599Z,25.40
2022-12-11T00:01:12.725Z,23.50
2022-12-11T00:02:12.644Z,24.90
2022-12-11T00:03:15.928Z,25.70
2022-12-11T00:04:13.568Z,24.30
2022-12-11T00:05:12.691Z,25.50
2022-12-11T00:06:12.552Z,24.90
2022-12-11T00:07:12.533Z,26.10
2022-12-11T00:08:13.200Z,27.10
2022-12-11T00:09:12.523Z,25.80
2022-12-11T00:10:12.513Z,26.30
2022-12-11T00:11:12.530Z,26.10
2022-12-11T00:12:12.502Z,27.30
2022-12-11T00:13:12.481Z,27.70
2022-12-11T00:14:12.474Z,29.00
2022-12-11T00:15:13.078Z,30.80
2022-12-11T00:16:12.535Z,32.90
2022-12-11T00:17:12.495Z,30.40
2022-12-11T00:18:12.691Z,29.30
2022-12-11T00:19:12.467Z,29.00
2022-12-11T00:20:12.450Z,28.10
2022-12-11T00:21:12.433Z,27.80
2022-12-11T00:22:12.434Z,28.70
2022-12-11T00:23:12.413Z,26.80
2022-12-11T00:24:12.414Z,28.30
2022-12-11T00:25:12.646Z,28.00
2022-12-11T00:26:12.420Z,27.90
2022-12-11T00:27:12.401Z,27.50
2022-12-11T00:28:12.370Z,24.30
2022-12-11T00:29:12.366Z,23.10
2022-12-11T00:30:12.376Z,23.90
2022-12-11T00:31:12.395Z,23.50
2022-12-11T00:32:12.413Z,23.00
2022-12-11T00:33:12.404Z,23.40
2022-12-11T00:34:12.337Z,23.10
2022-12-11T00:35:12.803Z,23.10
2022-12-11T00:36:12.329Z,22.10
2022-12-11T00:37:12.313Z,22.50
2022-12-11T00:38:12.304Z,21.70
2022-12-11T00:39:12.325Z,22.40
2022-12-11T00:40:12.313Z,22.30
2022-12-11T00:41:12.284Z,22.60
2022-12-11T00:42:12.274Z,22.70
2022-12-11T00:43:44.171Z,21.50
2022-12-11T00:44:12.333Z,22.60
2022-12-11T00:45:12.582Z,22.80
2022-12-11T00:46:13.170Z,23.60
2022-12-11T00:47:12.334Z,22.70
2022-12-11T00:48:12.284Z,24.20
2022-12-11T00:49:12.225Z,25.00
2022-12-11T00:50:12.244Z,25.20
2022-12-11T00:51:12.209Z,24.90
2022-12-11T00:52:12.263Z,26.20
2022-12-11T00:53:12.236Z,26.90
2022-12-11T00:54:12.204Z,25.70
2022-12-11T00:55:12.351Z,24.50
2022-12-11T00:56:12.165Z,26.20
2022-12-11T00:57:12.196Z,24.30
2022-12-11T00:58:12.162Z,24.10
2022-12-11T00:59:12.176Z,23.90
2022-12-11T01:00:12.160Z,24.60
2022-12-11T01:01:12.207Z,24.80
2022-12-11T01:02:12.163Z,24.50
2022-12-11T01:03:12.207Z,24.00
2022-12-11T01:04:12.141Z,24.10
2022-12-11T01:05:12.391Z,23.70
2022-12-11T01:06:12.112Z,23.20
2022-12-11T01:07:12.102Z,24.40
2022-12-11T01:08:12.157Z,23.70
2022-12-11T01:09:12.112Z,24.90
2022-12-11T01:10:12.104Z,24.30
2022-12-11T01:11:12.109Z,24.60
2022-12-11T01:12:12.073Z,24.30
2022-12-11T01:13:12.051Z,24.60
2022-12-11T01:14:12.056Z,23.70
2022-12-11T01:15:12.462Z,23.90
2022-12-11T01:16:12.156Z,23.90
2022-12-11T01:17:12.041Z,24.60
2022-12-11T01:18:12.015Z,26.50
2022-12-11T01:19:12.043Z,27.20
2022-12-11T01:20:12.038Z,29.70
2022-12-11T01:21:12.014Z,30.70
2022-12-11T01:22:12.006Z,28.30
2022-12-11T01:23:11.993Z,31.30
2022-12-11T01:24:11.992Z,30.60
2022-12-11T01:25:12.254Z,30.00
2022-12-11T01:26:11.962Z,31.30
2022-12-11T01:27:11.955Z,29.40
2022-12-11T01:28:12.195Z,30.50
2022-12-11T01:29:11.958Z,29.70
2022-12-11T01:30:11.918Z,30.50
2022-12-11T01:31:11.992Z,29.60
2022-12-11T01:32:11.915Z,29.90
2022-12-11T01:33:11.963Z,30.20
2022-12-11T01:34:43.836Z,30.50
2022-12-11T01:35:12.268Z,30.80
2022-12-11T01:36:11.917Z,30.50
2022-12-11T01:37:11.885Z,32.10
2022-12-11T01:38:11.904Z,30.20
2022-12-11T01:39:11.862Z,29.80
2022-12-11T01:40:11.864Z,29.00
2022-12-11T01:41:11.890Z,30.70
2022-12-11T01:42:11.876Z,29.30
2022-12-11T01:43:11.843Z,29.40
2022-12-11T01:44:11.853Z,29.70
2022-12-11T01:45:12.006Z,29.60
2022-12-11T01:46:11.853Z,29.70
2022-12-11T01:47:11.818Z,30.50
2022-12-11T01:48:11.797Z,28.30
2022-12-11T01:49:11.823Z,29.10
2022-12-11T01:50:11.859Z,27.70
2022-12-11T01:51:11.788Z,28.00
2022-12-11T01:52:11.786Z,27.80
2022-12-11T01:53:11.776Z,29.30
2022-12-11T01:54:11.814Z,28.60
2022-12-11T01:55:12.031Z,28.40
2022-12-11T01:56:11.765Z,29.30
2022-12-11T01:57:11.737Z,26.70
2022-12-11T01:58:11.752Z,28.50
2022-12-11T01:59:11.730Z,28.60
2022-12-11T02:00:11.785Z,28.30
2022-12-11T02:01:11.713Z,27.20
2022-12-11T02:02:12.727Z,27.40
2022-12-11T02:03:11.697Z,27.40
2022-12-11T02:04:11.707Z,28.30
2022-12-11T02:05:12.148Z,27.00
2022-12-11T02:06:11.666Z,26.80
2022-12-11T02:07:11.677Z,26.50
2022-12-11T02:08:11.700Z,25.90
2022-12-11T02:09:11.657Z,26.90
2022-12-11T02:10:11.701Z,26.80
2022-12-11T02:11:11.662Z,27.50
2022-12-11T02:12:11.629Z,26.70
2022-12-11T02:13:11.614Z,26.10
2022-12-11T02:14:11.621Z,26.70
2022-12-11T02:15:11.997Z,26.80
2022-12-11T02:16:11.605Z,26.50
2022-12-11T02:17:11.591Z,26.80
2022-12-11T02:18:11.590Z,26.70
2022-12-11T02:19:11.587Z,26.30
2022-12-11T02:20:11.592Z,26.40
2022-12-11T02:21:11.581Z,26.80
2022-12-11T02:22:11.556Z,25.50
2022-12-11T02:23:11.541Z,26.60
2022-12-11T02:24:11.568Z,25.30
2022-12-11T02:25:11.815Z,25.70
2022-12-11T02:26:43.463Z,25.50
2022-12-11T02:27:11.531Z,26.90
2022-12-11T02:28:11.562Z,24.80
2022-12-11T02:29:11.497Z,24.40
2022-12-11T02:30:11.483Z,24.30
2022-12-11T02:31:12.536Z,23.60
2022-12-11T02:32:11.534Z,24.10
2022-12-11T02:33:11.485Z,23.00
2022-12-11T02:34:11.472Z,24.00
2022-12-11T02:35:11.685Z,23.70
2022-12-11T02:36:11.462Z,25.00
2022-12-11T02:37:11.429Z,23.30
2022-12-11T02:38:12.131Z,23.60
2022-12-11T02:39:11.458Z,23.40
2022-12-11T02:40:12.427Z,22.80
2022-12-11T02:41:11.413Z,23.10
2022-12-11T02:42:11.414Z,24.50
2022-12-11T02:43:11.399Z,22.30
2022-12-11T02:44:11.397Z,24.10
2022-12-11T02:45:11.640Z,22.80
2022-12-11T02:46:11.382Z,21.70
2022-12-11T02:47:11.359Z,21.90
2022-12-11T02:48:12.130Z,21.30
2022-12-11T02:49:11.387Z,21.70
2022-12-11T02:50:11.361Z,22.40
2022-12-11T02:51:11.329Z,22.50
2022-12-11T02:52:11.329Z,21.70
2022-12-11T02:53:11.326Z,21.60
2022-12-11T02:54:11.337Z,21.90
2022-12-11T02:55:11.512Z,21.50
2022-12-11T02:56:11.296Z,22.10
2022-12-11T02:57:11.297Z,23.20
2022-12-11T02:58:12.043Z,22.00
2022-12-11T02:59:11.267Z,22.40
2022-12-11T03:00:11.300Z,23.00
2022-12-11T03:01:11.297Z,22.30
2022-12-11T03:02:11.328Z,23.00
2022-12-11T03:03:11.245Z,23.30
2022-12-11T03:04:11.239Z,22.60
2022-12-11T03:05:11.543Z,21.80
2022-12-11T03:06:11.238Z,22.30
2022-12-11T03:07:11.207Z,22.60
2022-12-11T03:08:11.220Z,20.80
2022-12-11T03:09:11.200Z,20.90
2022-12-11T03:10:11.202Z,20.70
2022-12-11T03:11:11.192Z,20.20
2022-12-11T03:12:11.173Z,20.90
2022-12-11T03:13:11.217Z,20.80
2022-12-11T03:14:11.149Z,20.70
2022-12-11T03:15:11.421Z,20.30
2022-12-11T03:16:11.196Z,20.00
2022-12-11T03:17:11.148Z,20.60
2022-12-11T03:18:11.158Z,20.50
2022-12-11T03:19:11.431Z,20.00
2022-12-11T03:20:11.109Z,20.40
2022-12-11T03:21:11.119Z,19.50
2022-12-11T03:22:11.154Z,20.50
2022-12-11T03:23:11.089Z,19.90
2022-12-11T03:24:11.076Z,19.70
2022-12-11T03:25:43.167Z,19.90
2022-12-11T03:26:11.110Z,21.00
2022-12-11T03:27:11.394Z,20.80
2022-12-11T03:28:12.092Z,20.10
2022-12-11T03:29:11.047Z,20.20
2022-12-11T03:30:11.057Z,21.10
2022-12-11T03:31:11.085Z,20.00
2022-12-11T03:32:11.062Z,22.40
2022-12-11T03:33:11.030Z,21.70
2022-12-11T03:34:11.038Z,22.10
2022-12-11T03:35:12.133Z,19.10
2022-12-11T03:36:11.086Z,20.40
2022-12-11T03:37:10.994Z,18.20
2022-12-11T03:38:11.064Z,19.60
2022-12-11T03:39:10.999Z,18.30
2022-12-11T03:40:10.989Z,19.90
2022-12-11T03:41:10.986Z,25.90
2022-12-11T03:42:11.040Z,29.80
2022-12-11T03:43:10.974Z,25.80
2022-12-11T03:44:10.963Z,21.00
2022-12-11T03:45:11.344Z,20.20
2022-12-11T03:46:10.962Z,19.60
2022-12-11T03:47:10.935Z,24.70
2022-12-11T04:02:56.513Z,14.10
2022-12-11T04:03:56.539Z,16.80
2022-12-11T04:04:56.478Z,18.40
2022-12-11T04:05:56.508Z,20.20
2022-12-11T04:06:56.479Z,21.40
2022-12-11T04:07:57.663Z,36.30
2022-12-11T04:08:57.610Z,42.60
2022-12-11T04:09:57.587Z,43.40
2022-12-11T04:10:57.574Z,43.10
2022-12-11T04:11:57.608Z,41.90
2022-12-11T04:12:57.557Z,30.50
2022-12-11T04:13:57.573Z,24.10
2022-12-11T04:14:57.551Z,17.70
2022-12-11T04:15:57.613Z,16.20
2022-12-11T04:16:59.109Z,14.00
2022-12-11T04:17:57.534Z,14.20
2022-12-11T04:18:58.214Z,14.10
2022-12-11T04:19:57.560Z,13.90
2022-12-11T04:20:57.587Z,14.70
2022-12-11T04:21:57.545Z,12.70
2022-12-11T04:22:57.521Z,12.90
2022-12-11T04:23:57.488Z,13.60
2022-12-11T04:24:57.479Z,13.10
2022-12-11T04:25:57.497Z,13.90
2022-12-11T04:26:57.471Z,12.90
2022-12-11T04:27:57.477Z,14.10
2022-12-11T04:28:57.474Z,13.30
2022-12-11T04:29:57.463Z,13.40
2022-12-11T04:30:57.521Z,12.40
2022-12-11T04:31:57.451Z,12.90
2022-12-11T04:32:57.428Z,12.60
2022-12-11T04:33:57.407Z,13.30
2022-12-11T04:34:57.452Z,13.40
2022-12-11T04:35:57.411Z,12.70
2022-12-11T04:36:57.433Z,13.10
2022-12-11T04:37:57.389Z,12.80
2022-12-11T04:38:57.387Z,13.00
2022-12-11T04:39:57.402Z,13.00
2022-12-11T04:40:57.378Z,12.70
2022-12-11T04:41:57.366Z,12.70
2022-12-11T04:42:57.358Z,13.10
2022-12-11T04:43:57.375Z,12.70
2022-12-11T04:44:57.341Z,14.00
2022-12-11T04:45:57.452Z,12.80
2022-12-11T04:46:57.335Z,12.60
2022-12-11T04:47:57.313Z,13.40
2022-12-11T04:48:58.049Z,13.60
2022-12-11T04:49:58.336Z,13.20
2022-12-11T04:50:57.310Z,12.50
2022-12-11T04:51:57.270Z,12.60
2022-12-11T04:52:58.239Z,12.80
2022-12-11T04:53:57.268Z,12.80
2022-12-11T04:54:57.253Z,13.60
2022-12-11T04:55:57.280Z,13.20
2022-12-11T04:56:57.250Z,13.40
2022-12-11T04:57:57.319Z,13.10
2022-12-11T04:58:57.269Z,13.50
2022-12-11T04:59:57.247Z,14.10
2022-12-11T05:00:57.257Z,13.30
2022-12-11T05:01:57.288Z,13.90
2022-12-11T05:02:57.259Z,14.00
2022-12-11T05:03:57.188Z,13.00
2022-12-11T05:04:57.210Z,13.20
2022-12-11T05:05:57.191Z,13.00
2022-12-11T05:06:57.273Z,13.00
2022-12-11T05:07:57.244Z,13.60
2022-12-11T05:08:57.171Z,14.10
2022-12-11T05:09:57.285Z,12.70
2022-12-11T05:10:57.155Z,14.20
2022-12-11T05:11:57.142Z,13.40
2022-12-11T05:12:57.135Z,13.40
2022-12-11T05:13:57.108Z,14.50
2022-12-11T05:14:57.127Z,14.00
2022-12-11T05:15:57.234Z,14.10
2022-12-11T05:16:57.137Z,13.40
2022-12-11T05:17:57.085Z,13.30
2022-12-11T05:18:57.180Z,12.70
2022-12-11T05:19:57.067Z,12.90
2022-12-11T05:20:57.066Z,13.30
2022-12-11T05:21:57.731Z,13.20
2022-12-11T05:22:57.092Z,13.80
2022-12-11T05:23:57.057Z,13.50
2022-12-11T05:24:57.113Z,13.80
2022-12-11T05:25:57.093Z,14.90
2022-12-11T05:26:57.033Z,14.20
2022-12-11T05:27:57.031Z,13.50
2022-12-11T05:28:57.047Z,12.60
2022-12-11T05:29:59.522Z,14.00
2022-12-11T05:30:58.025Z,14.80
2022-12-11T05:31:56.970Z,14.70
2022-12-11T05:32:56.970Z,15.60
2022-12-11T05:33:56.982Z,16.20
2022-12-11T05:34:56.955Z,16.40
2022-12-11T05:35:57.049Z,16.30
2022-12-11T05:36:56.953Z,14.80
2022-12-11T05:37:56.960Z,15.80
2022-12-11T05:38:56.956Z,17.10
2022-12-11T05:39:56.958Z,15.90
2022-12-11T05:40:56.916Z,16.30
2022-12-11T05:41:56.914Z,15.80
2022-12-11T05:42:56.926Z,15.80
2022-12-11T05:43:56.948Z,15.50
2022-12-11T05:44:56.913Z,16.20
2022-12-11T05:45:56.893Z,15.90
2022-12-11T05:46:56.898Z,15.70
2022-12-11T05:47:56.870Z,14.50
2022-12-11T05:48:56.889Z,15.40
2022-12-11T05:49:56.874Z,15.70
2022-12-11T05:50:56.888Z,14.70
2022-12-11T05:51:56.843Z,14.00
2022-12-11T05:52:56.870Z,13.20
2022-12-11T05:54:28.824Z,13.80
2022-12-11T05:54:56.918Z,14.90
2022-12-11T05:55:56.833Z,13.70
2022-12-11T05:56:56.796Z,15.00
2022-12-11T05:57:56.824Z,14.70
2022-12-11T05:58:56.848Z,13.80
2022-12-11T05:59:56.784Z,13.00
2022-12-11T06:00:56.833Z,13.70
2022-12-11T06:01:56.882Z,14.30
2022-12-11T06:02:56.846Z,13.90
2022-12-11T06:03:56.802Z,14.30
2022-12-11T06:04:56.753Z,14.20
2022-12-11T06:05:56.757Z,14.30
2022-12-11T06:06:56.761Z,14.70
2022-12-11T06:07:56.759Z,15.80
2022-12-11T06:08:56.735Z,15.40
2022-12-11T06:09:56.842Z,14.70
2022-12-11T06:10:56.749Z,15.80
2022-12-11T06:11:56.692Z,16.10
2022-12-11T06:12:56.725Z,14.90
2022-12-11T06:13:56.674Z,15.60
2022-12-11T06:14:56.678Z,16.60
2022-12-11T06:15:57.288Z,16.30
2022-12-11T06:16:56.693Z,16.20
2022-12-11T06:17:56.677Z,16.20
2022-12-11T06:18:58.371Z,16.70
2022-12-11T06:19:57.661Z,15.50
2022-12-11T06:20:56.645Z,15.50
2022-12-11T06:21:56.664Z,15.50
2022-12-11T06:22:56.620Z,16.20
2022-12-11T06:23:56.608Z,16.50
2022-12-11T06:24:56.637Z,16.00
2022-12-11T06:25:56.620Z,16.90
2022-12-11T06:26:57.272Z,16.40
2022-12-11T06:27:56.594Z,15.90
2022-12-11T06:28:56.572Z,15.60
2022-12-11T06:29:56.598Z,16.00
2022-12-11T06:30:56.569Z,15.20
2022-12-11T06:31:56.634Z,15.50
2022-12-11T06:32:56.570Z,15.70
2022-12-11T06:33:56.558Z,15.70
2022-12-11T06:34:56.536Z,15.70
2022-12-11T06:35:56.533Z,16.30
2022-12-11T06:36:56.531Z,16.30
2022-12-11T06:37:56.522Z,15.00
2022-12-11T06:38:56.504Z,14.90
2022-12-11T06:39:56.500Z,15.80
2022-12-11T06:40:56.491Z,16.00
2022-12-11T06:41:56.491Z,14.80
2022-12-11T06:42:56.487Z,15.90
2022-12-11T06:43:56.462Z,14.60
2022-12-11T06:44:56.470Z,15.50
2022-12-11T06:46:02.088Z,15.60
2022-12-11T06:46:58.459Z,15.60
2022-12-11T06:47:56.462Z,15.30
2022-12-11T06:48:56.434Z,14.80
2022-12-11T06:49:56.441Z,15.50
2022-12-11T06:50:56.410Z,16.10
2022-12-11T06:51:56.434Z,16.20
2022-12-11T06:52:56.410Z,15.80
2022-12-11T06:53:56.422Z,16.10
2022-12-11T06:54:56.381Z,16.40
2022-12-11T06:55:56.371Z,17.20
2022-12-11T06:56:56.393Z,16.70
2022-12-11T06:57:56.349Z,15.80
2022-12-11T06:58:57.354Z,16.20
2022-12-11T06:59:56.370Z,17.20
2022-12-11T07:00:56.412Z,19.40
2022-12-11T07:01:56.456Z,18.50
2022-12-11T07:02:56.359Z,17.60
2022-12-11T07:03:56.332Z,19.60
2022-12-11T07:04:56.334Z,21.10
2022-12-11T07:05:56.329Z,21.30
2022-12-11T07:06:56.332Z,16.90
2022-12-11T07:07:56.399Z,18.30
2022-12-11T07:08:56.277Z,17.20
2022-12-11T07:09:56.299Z,15.50
2022-12-11T07:10:56.343Z,15.30
2022-12-11T07:11:56.290Z,16.10
2022-12-11T07:12:56.278Z,15.10
2022-12-11T07:13:56.251Z,15.90
2022-12-11T07:14:57.304Z,15.90
2022-12-11T07:15:56.238Z,15.60
2022-12-11T07:16:56.262Z,15.60
2022-12-11T07:17:56.274Z,16.20
2022-12-11T07:18:56.208Z,16.70
2022-12-11T07:19:56.218Z,17.40
2022-12-11T07:20:56.194Z,15.10
2022-12-11T07:21:56.201Z,15.90
2022-12-11T07:22:56.201Z,17.00
2022-12-11T07:23:56.215Z,15.90
2022-12-11T07:24:56.170Z,17.00
2022-12-11T07:25:56.184Z,15.30
2022-12-11T07:26:56.183Z,15.90
2022-12-11T07:27:56.138Z,16.00
2022-12-11T07:28:56.143Z,16.20
2022-12-11T07:29:56.144Z,23.00
2022-12-11T07:30:56.170Z,21.90
2022-12-11T07:31:56.233Z,22.20
2022-12-11T07:32:56.253Z,19.70
2022-12-11T07:33:56.209Z,16.70
2022-12-11T07:34:56.124Z,22.60
2022-12-11T07:35:56.228Z,21.10
2022-12-11T07:36:56.093Z,23.70
2022-12-11T07:37:56.096Z,25.90
2022-12-11T07:38:56.053Z,25.30
2022-12-11T07:39:56.104Z,20.60
2022-12-11T07:40:56.053Z,20.00
2022-12-11T07:41:56.072Z,18.80
2022-12-11T07:42:56.032Z,18.60
2022-12-11T07:43:56.057Z,18.00
2022-12-11T07:44:56.018Z,17.30
2022-12-11T07:45:56.040Z,17.70
2022-12-11T07:46:55.997Z,17.20
2022-12-11T07:47:56.002Z,17.00
2022-12-11T07:48:56.012Z,17.00
2022-12-11T07:49:55.983Z,17.30
2022-12-11T07:50:55.989Z,17.30
2022-12-11T07:51:55.948Z,16.50
2022-12-11T07:52:55.961Z,16.20
2022-12-11T07:53:55.976Z,15.90
2022-12-11T07:54:55.932Z,15.90
2022-12-11T07:55:55.928Z,16.20
2022-12-11T07:56:55.953Z,15.10
2022-12-11T07:57:55.927Z,14.40
2022-12-11T07:58:55.932Z,15.30
2022-12-11T07:59:55.917Z,16.00
2022-12-11T08:00:55.928Z,16.10
2022-12-11T08:01:55.981Z,16.60
2022-12-11T08:02:55.934Z,16.50
2022-12-11T08:03:55.879Z,16.90
2022-12-11T08:04:55.968Z,15.90
2022-12-11T08:05:55.916Z,15.40
2022-12-11T08:06:55.893Z,16.60
2022-12-11T08:07:55.911Z,16.50
2022-12-11T08:08:55.842Z,16.50
2022-12-11T08:09:55.840Z,17.00
2022-12-11T08:10:55.847Z,17.30
2022-12-11T08:11:55.828Z,17.10
2022-12-11T08:12:55.872Z,17.10
2022-12-11T08:13:55.821Z,17.10
2022-12-11T08:14:55.835Z,16.70
2022-12-11T08:15:55.798Z,17.90
2022-12-11T08:16:55.837Z,16.70
2022-12-11T08:17:55.771Z,16.00
2022-12-11T08:18:55.769Z,15.10
2022-12-11T08:19:55.756Z,16.00
2022-12-11T08:20:55.755Z,16.20
2022-12-11T08:21:55.756Z,17.10
2022-12-11T08:22:59.012Z,16.00
2022-12-11T08:23:56.741Z,17.20
2022-12-11T08:24:55.813Z,16.90
2022-12-11T08:25:56.270Z,16.10
2022-12-11T08:26:55.813Z,16.70
2022-12-11T08:27:55.705Z,15.20
2022-12-11T08:28:55.713Z,16.10
2022-12-11T08:29:55.728Z,15.20
2022-12-11T08:30:55.738Z,14.50
2022-12-11T08:31:55.686Z,14.80
2022-12-11T08:32:55.838Z,14.20
2022-12-11T08:33:55.699Z,14.50
2022-12-11T08:34:56.747Z,13.90
2022-12-11T08:35:55.659Z,14.10
2022-12-11T08:36:55.678Z,14.70
2022-12-11T08:37:55.676Z,14.90
2022-12-11T08:38:55.629Z,14.10
2022-12-11T08:39:55.634Z,13.80
2022-12-11T08:40:56.111Z,14.30
2022-12-11T08:41:55.754Z,14.90
2022-12-11T08:42:55.634Z,14.80
2022-12-11T08:43:55.643Z,14.60
2022-12-11T08:44:55.591Z,15.10
2022-12-11T08:45:55.650Z,14.90
2022-12-11T08:46:55.592Z,14.60
2022-12-11T08:47:55.566Z,15.80
2022-12-11T08:48:55.677Z,15.20
2022-12-11T08:49:55.635Z,15.00
2022-12-11T08:50:55.570Z,15.00
2022-12-11T08:51:55.546Z,14.80
2022-12-11T08:52:55.583Z,15.00
2022-12-11T08:53:55.514Z,14.00
2022-12-11T08:54:55.519Z,14.90
2022-12-11T08:55:55.491Z,14.50
2022-12-11T08:56:58.127Z,15.20
2022-12-11T08:57:56.476Z,14.60
2022-12-11T08:58:55.491Z,14.10
2022-12-11T08:59:56.159Z,14.50
2022-12-11T09:00:55.554Z,15.30
2022-12-11T09:01:56.300Z,15.50
2022-12-11T09:02:55.496Z,15.30
2022-12-11T09:03:55.457Z,14.90
2022-12-11T09:04:55.502Z,15.40
2022-12-11T09:05:55.418Z,15.10
2022-12-11T09:06:55.462Z,14.60
2022-12-11T09:07:55.493Z,14.60
2022-12-11T09:08:55.433Z,15.90
2022-12-11T09:09:55.451Z,26.20
2022-12-11T09:10:55.446Z,16.50
2022-12-11T09:11:55.454Z,17.40
2022-12-11T09:12:55.407Z,17.30
2022-12-11T09:13:55.412Z,19.50
2022-12-11T09:14:55.410Z,20.60
2022-12-11T09:15:55.410Z,17.70
2022-12-11T09:16:55.380Z,22.20
2022-12-11T09:17:55.343Z,14.90
2022-12-11T09:18:55.406Z,16.80
2022-12-11T09:19:55.345Z,19.70
2022-12-11T09:20:55.376Z,15.90
2022-12-11T09:21:55.372Z,23.50
2022-12-11T09:22:55.321Z,21.90
2022-12-11T09:23:55.376Z,16.60
2022-12-11T09:25:27.202Z,17.30
2022-12-11T09:25:57.219Z,18.40
2022-12-11T09:26:55.300Z,17.60
2022-12-11T09:27:55.274Z,16.70
2022-12-11T09:28:55.255Z,18.00
2022-12-11T09:29:55.245Z,16.60
2022-12-11T09:30:55.293Z,15.70
2022-12-11T09:31:55.265Z,16.60
2022-12-11T09:32:55.223Z,16.10
2022-12-11T09:33:55.242Z,16.60
2022-12-11T09:34:55.191Z,18.10
2022-12-11T09:35:56.208Z,17.60
2022-12-11T09:36:55.183Z,18.00
2022-12-11T09:37:56.175Z,16.50
2022-12-11T09:38:55.196Z,15.80
2022-12-11T09:39:55.198Z,17.30
2022-12-11T09:40:55.187Z,18.80
2022-12-11T09:41:55.166Z,20.30
2022-12-11T09:42:55.150Z,19.10
2022-12-11T09:43:55.151Z,17.10
2022-12-11T09:44:55.171Z,17.60
2022-12-11T09:45:55.201Z,18.10
2022-12-11T09:46:55.208Z,20.70
2022-12-11T09:47:55.118Z,18.20
2022-12-11T09:48:55.132Z,18.80
2022-12-11T09:49:55.137Z,18.00
2022-12-11T09:50:55.092Z,18.40
2022-12-11T09:51:55.085Z,17.50
2022-12-11T09:52:55.083Z,17.60
2022-12-11T09:53:55.074Z,19.30
2022-12-11T09:54:55.125Z,18.30
2022-12-11T09:55:55.114Z,18.20
2022-12-11T09:56:55.054Z,18.50
2022-12-11T09:57:55.046Z,17.80
2022-12-11T09:58:55.028Z,18.30
2022-12-11T09:59:58.429Z,19.40
2022-12-11T10:00:56.043Z,18.80
2022-12-11T10:01:55.047Z,18.10
2022-12-11T10:02:55.090Z,18.20
2022-12-11T10:03:54.988Z,19.00
2022-12-11T10:04:55.022Z,18.10
2022-12-11T10:05:57.369Z,19.00
2022-12-11T10:06:56.054Z,18.50
2022-12-11T10:07:54.961Z,19.20
2022-12-11T10:08:54.968Z,19.50
2022-12-11T10:09:54.981Z,19.60
2022-12-11T10:10:54.988Z,20.50
2022-12-11T10:11:56.911Z,22.50
2022-12-11T10:12:55.922Z,20.10
2022-12-11T10:13:54.931Z,18.90
2022-12-11T10:14:54.982Z,20.20
2022-12-11T10:15:55.027Z,35.50
2022-12-11T10:16:54.903Z,27.20
2022-12-11T10:17:57.559Z,25.10
2022-12-11T10:18:55.894Z,23.60
2022-12-11T10:19:54.889Z,22.30
2022-12-11T10:20:54.886Z,23.80
2022-12-11T10:21:54.919Z,22.10
2022-12-11T10:22:54.846Z,20.50
2022-12-11T10:23:54.844Z,20.90
2022-12-11T10:25:11.856Z,21.20
2022-12-11T10:25:56.891Z,24.40
2022-12-11T10:26:54.871Z,25.80
2022-12-11T10:27:54.829Z,25.40
2022-12-11T10:28:54.842Z,23.90
2022-12-11T10:29:54.786Z,23.80
2022-12-11T10:30:54.809Z,23.10
2022-12-11T10:31:54.780Z,22.70
2022-12-11T10:32:54.779Z,21.00
2022-12-11T10:33:54.819Z,24.10
2022-12-11T10:34:54.792Z,23.50
2022-12-11T10:35:54.768Z,23.30
2022-12-11T10:37:00.185Z,21.80
2022-12-11T10:37:56.732Z,23.50
2022-12-11T10:38:54.776Z,23.70
2022-12-11T10:39:54.706Z,24.70
2022-12-11T10:40:54.719Z,24.40
2022-12-11T10:41:54.765Z,24.80
2022-12-11T10:42:54.734Z,22.80
2022-12-11T10:43:54.731Z,23.70
2022-12-11T10:44:54.746Z,22.10
2022-12-11T10:45:54.895Z,20.60
2022-12-11T10:46:54.692Z,23.20
2022-12-11T10:47:54.731Z,22.60
2022-12-11T10:48:54.652Z,21.60
2022-12-11T10:49:54.687Z,22.50
2022-12-11T10:50:54.657Z,21.70
2022-12-11T10:51:54.722Z,22.20
2022-12-11T10:52:54.630Z,22.90
2022-12-11T10:53:54.657Z,22.20
2022-12-11T10:54:54.642Z,21.40
2022-12-11T10:55:54.648Z,21.50
2022-12-11T10:56:54.643Z,20.80
2022-12-11T10:57:54.595Z,22.90
2022-12-11T10:58:54.680Z,21.90
2022-12-11T10:59:54.601Z,21.90
2022-12-11T11:00:54.604Z,21.60
2022-12-11T11:01:54.644Z,22.40
2022-12-11T11:02:54.661Z,23.30
2022-12-11T11:03:54.553Z,22.80
2022-12-11T11:04:54.548Z,23.60
2022-12-11T11:05:54.543Z,24.30
2022-12-11T11:06:54.542Z,24.20
2022-12-11T11:07:54.539Z,23.80
2022-12-11T11:08:54.548Z,23.70
2022-12-11T11:09:54.519Z,24.70
2022-12-11T11:10:54.529Z,25.10
2022-12-11T11:11:54.542Z,28.60
2022-12-11T11:12:54.492Z,25.90
2022-12-11T11:13:54.502Z,24.70
2022-12-11T11:14:54.488Z,25.00
2022-12-11T11:15:54.551Z,24.40
2022-12-11T11:16:54.465Z,25.50
2022-12-11T11:17:55.795Z,25.30
2022-12-11T11:18:55.441Z,24.30
2022-12-11T11:19:54.424Z,22.60
2022-12-11T11:20:54.462Z,23.40
2022-12-11T11:21:54.428Z,23.80
2022-12-11T11:22:54.468Z,23.30
2022-12-11T11:23:54.453Z,24.50
2022-12-11T11:24:54.417Z,24.10
2022-12-11T11:25:54.429Z,23.80
2022-12-11T11:27:12.859Z,23.40
2022-12-11T11:27:56.417Z,25.00
2022-12-11T11:28:55.380Z,24.30
2022-12-11T11:29:54.393Z,23.30
2022-12-11T11:30:54.391Z,22.20
2022-12-11T11:31:54.368Z,24.50
2022-12-11T11:32:54.341Z,23.80
2022-12-11T11:33:54.335Z,25.20
2022-12-11T11:34:54.310Z,25.60
2022-12-11T11:35:54.368Z,24.90
2022-12-11T11:36:54.294Z,25.30
2022-12-11T11:37:54.298Z,24.40
2022-12-11T11:38:54.309Z,24.90
2022-12-11T11:39:54.268Z,25.40
2022-12-11T11:40:57.040Z,26.50
2022-12-11T11:41:55.250Z,25.40
2022-12-11T11:42:54.254Z,26.60
2022-12-11T11:43:54.270Z,25.50
2022-12-11T11:44:54.238Z,26.00
2022-12-11T11:45:55.324Z,26.00
2022-12-11T11:46:54.245Z,25.50
2022-12-11T11:47:54.241Z,26.40
2022-12-11T11:48:54.395Z,25.90
2022-12-11T11:49:54.188Z,26.10
2022-12-11T11:50:54.194Z,27.10
2022-12-11T11:51:54.199Z,25.40
2022-12-11T11:52:54.260Z,24.90
2022-12-11T11:53:54.191Z,25.80
2022-12-11T11:54:54.212Z,24.80
2022-12-11T11:55:54.184Z,23.30
2022-12-11T11:56:54.239Z,25.60
2022-12-11T11:57:54.142Z,21.60
2022-12-11T11:58:54.275Z,23.70
2022-12-11T11:59:54.143Z,24.30
2022-12-11T12:00:54.176Z,25.40
2022-12-11T12:01:54.186Z,25.60
2022-12-11T12:02:54.179Z,25.50
2022-12-11T12:03:54.852Z,23.90
2022-12-11T12:04:54.090Z,23.90
2022-12-11T12:05:54.095Z,25.00
2022-12-11T12:06:54.121Z,23.70
2022-12-11T12:07:54.137Z,22.40
2022-12-11T12:08:54.065Z,21.80
2022-12-11T12:09:54.084Z,22.70
2022-12-11T12:10:54.040Z,22.50
2022-12-11T12:11:54.063Z,21.00
2022-12-11T12:12:54.030Z,23.40
2022-12-11T12:13:54.041Z,23.60
2022-12-11T12:14:54.024Z,24.80
2022-12-11T12:15:54.027Z,23.90
2022-12-11T12:16:54.807Z,23.30
2022-12-11T12:17:56.087Z,24.80
2022-12-11T12:18:54.998Z,25.30
2022-12-11T12:19:54.011Z,24.20
2022-12-11T12:20:53.979Z,25.30
2022-12-11T12:21:53.948Z,25.80
2022-12-11T12:22:54.007Z,26.60
2022-12-11T12:23:53.925Z,26.50
2022-12-11T12:24:54.025Z,24.30
2022-12-11T12:25:53.903Z,25.50
2022-12-11T12:26:53.928Z,24.90
2022-12-11T12:27:53.965Z,25.60
2022-12-11T12:28:54.016Z,25.10
2022-12-11T12:29:53.926Z,25.00
2022-12-11T12:30:53.903Z,24.20
2022-12-11T12:31:54.050Z,24.40
2022-12-11T12:32:53.892Z,24.10
2022-12-11T12:33:53.891Z,25.00
2022-12-11T12:34:53.892Z,24.60
2022-12-11T12:35:53.890Z,25.40
2022-12-11T12:36:53.993Z,24.20
2022-12-11T12:37:53.842Z,24.40
2022-12-11T12:38:53.855Z,23.80
2022-12-11T12:39:53.842Z,25.40
2022-12-11T12:40:53.887Z,23.20
2022-12-11T12:41:53.839Z,23.60
2022-12-11T12:42:53.851Z,25.20
2022-12-11T12:43:53.835Z,24.50
2022-12-11T12:44:53.812Z,23.80
2022-12-11T12:45:54.808Z,23.20
2022-12-11T12:46:53.803Z,23.00
2022-12-11T12:47:53.823Z,23.60
2022-12-11T12:48:53.769Z,24.10
2022-12-11T12:49:53.800Z,24.80
2022-12-11T12:50:53.812Z,23.90
2022-12-11T12:51:53.763Z,24.30
2022-12-11T12:52:53.741Z,24.10
2022-12-11T12:53:53.803Z,24.70
2022-12-11T12:54:53.883Z,25.50
2022-12-11T12:55:53.723Z,26.00
2022-12-11T12:56:53.759Z,24.50
2022-12-11T12:57:53.699Z,24.10
2022-12-11T12:58:53.686Z,25.50
2022-12-11T12:59:53.798Z,24.00
2022-12-11T13:00:53.765Z,24.00
2022-12-11T13:01:53.812Z,24.80
2022-12-11T13:02:53.683Z,23.50
2022-12-11T13:03:53.752Z,24.00
2022-12-11T13:04:56.330Z,24.00
2022-12-11T13:05:54.645Z,24.00
2022-12-11T13:06:53.665Z,22.30